createdAt,value
2023-03-22T00:00:19.647Z,61.55
2023-03-22T00:02:47.258Z,61.93
2023-03-22T00:05:16.306Z,61.52
2023-03-22T00:07:43.896Z,61.34
2023-03-22T00:10:12.033Z,62.17
2023-03-22T00:12:39.519Z,63.42
2023-03-22T00:15:08.152Z,62.16
2023-03-22T00:17:36.629Z,61.41
2023-03-22T00:20:06.292Z,62.48
2023-03-22T00:22:35.152Z,61.93
2023-03-22T00:25:02.668Z,61.58
2023-03-22T00:27:30.454Z,63.89
2023-03-22T00:29:57.997Z,63.39
2023-03-22T00:32:25.713Z,62.80
2023-03-22T00:34:53.282Z,61.96
2023-03-22T00:37:20.898Z,61.76
2023-03-22T00:39:49.829Z,61.72
2023-03-22T00:42:17.366Z,62.28
2023-03-22T00:44:44.914Z,62.38
2023-03-22T00:47:12.481Z,62.73
2023-03-22T00:49:40.057Z,61.86
2023-03-22T00:52:07.603Z,61.93
2023-03-22T00:54:35.143Z,61.99
2023-03-22T00:57:04.169Z,62.31
2023-03-22T00:59:31.799Z,62.73
2023-03-22T01:01:59.310Z,63.18
2023-03-22T01:04:26.965Z,64.10
2023-03-22T01:06:59.272Z,64.99
2023-03-22T01:09:28.303Z,63.45
2023-03-22T01:11:56.290Z,63.00
2023-03-22T01:14:26.144Z,62.90
2023-03-22T01:16:54.905Z,62.88
2023-03-22T01:19:22.499Z,62.83
2023-03-22T01:21:50.208Z,63.19
2023-03-22T01:24:17.779Z,62.94
2023-03-22T01:26:45.390Z,66.81
2023-03-22T01:29:13.109Z,64.15
2023-03-22T01:31:42.285Z,65.07
2023-03-22T01:34:10.253Z,64.67
2023-03-22T01:36:38.096Z,63.45
2023-03-22T01:39:05.824Z,63.06
2023-03-22T01:41:35.050Z,62.73
2023-03-22T01:44:13.940Z,62.50
2023-03-22T01:46:44.632Z,62.52
2023-03-22T01:49:16.059Z,62.54
2023-03-22T01:51:46.055Z,62.41
2023-03-22T01:54:17.935Z,62.55
2023-03-22T01:56:45.962Z,62.79
2023-03-22T01:59:15.976Z,62.78
2023-03-22T02:01:47.087Z,62.87
2023-03-22T02:04:20.001Z,63.24
2023-03-22T02:06:48.453Z,63.01
2023-03-22T02:09:21.967Z,63.02
2023-03-22T02:11:59.303Z,63.25
2023-03-22T02:14:39.365Z,63.71
2023-03-22T02:17:21.089Z,64.09
2023-03-22T02:20:16.439Z,64.17
2023-03-22T02:23:02.287Z,64.41
2023-03-22T02:26:03.394Z,64.69
2023-03-22T02:28:42.149Z,64.60
2023-03-22T02:31:38.278Z,64.98
2023-03-22T03:13:39.230Z,65.63
2023-03-22T03:16:08.372Z,66.02
2023-03-22T03:18:45.808Z,66.52
2023-03-22T03:21:30.178Z,66.58
2023-03-22T03:24:08.674Z,66.57
2023-03-22T03:26:44.753Z,66.91
2023-03-22T03:29:18.993Z,66.87
2023-03-22T03:31:51.429Z,66.75
2023-03-22T03:34:23.209Z,68.76
2023-03-22T03:36:57.699Z,68.22
2023-03-22T03:39:27.661Z,67.06
2023-03-22T03:41:56.757Z,66.30
2023-03-22T03:44:25.844Z,66.46
2023-03-22T03:46:54.847Z,66.37
2023-03-22T03:49:24.240Z,66.17
2023-03-22T03:51:54.454Z,66.81
2023-03-22T03:54:23.019Z,66.52
2023-03-22T03:56:50.956Z,66.98
2023-03-22T03:59:20.873Z,66.58
2023-03-22T04:01:52.465Z,67.13
2023-03-22T04:04:26.476Z,67.63
2023-03-22T04:06:56.800Z,66.88
2023-03-22T04:09:25.200Z,66.44
2023-03-22T04:11:52.710Z,66.47
2023-03-22T04:14:20.325Z,66.23
2023-03-22T04:16:49.210Z,66.32
2023-03-22T04:19:16.906Z,66.49
2023-03-22T04:21:44.579Z,66.58
2023-03-22T04:24:12.740Z,66.90
2023-03-22T04:26:40.761Z,66.85
2023-03-22T04:29:08.546Z,67.27
2023-03-22T04:31:36.878Z,68.47
2023-03-22T04:34:06.413Z,68.25
2023-03-22T04:36:36.385Z,68.44
2023-03-22T04:39:05.967Z,67.46
2023-03-22T04:41:33.554Z,67.99
2023-03-22T04:44:03.206Z,67.36
2023-03-22T04:46:31.397Z,67.07
2023-03-22T04:48:59.225Z,68.59
2023-03-22T04:51:28.786Z,67.59
2023-03-22T04:53:56.335Z,67.10
2023-03-22T04:56:23.880Z,68.56
2023-03-22T04:58:51.547Z,67.37
2023-03-22T05:01:19.477Z,66.79
2023-03-22T05:03:47.452Z,66.50
2023-03-22T05:06:16.012Z,66.60
2023-03-22T05:08:45.050Z,66.47
2023-03-22T05:11:16.355Z,66.37
2023-03-22T05:13:44.474Z,66.69
2023-03-22T05:16:12.525Z,66.60
2023-03-22T05:18:42.457Z,66.35
2023-03-22T05:21:13.737Z,66.78
2023-03-22T05:23:41.967Z,66.75
2023-03-22T05:26:16.114Z,66.95
2023-03-22T05:28:44.707Z,66.69
2023-03-22T05:31:14.657Z,66.95
2023-03-22T05:33:42.476Z,67.22
2023-03-22T05:36:11.675Z,67.38
2023-03-22T05:38:39.570Z,67.24
2023-03-22T05:41:07.637Z,67.25
2023-03-22T05:43:36.499Z,67.62
2023-03-22T05:46:06.725Z,67.72
2023-03-22T05:48:34.424Z,67.92
2023-03-22T05:51:03.406Z,67.95
2023-03-22T05:53:31.859Z,68.30
2023-03-22T05:56:01.899Z,68.28
2023-03-22T05:58:30.640Z,67.82
2023-03-22T06:01:05.948Z,67.80
2023-03-22T06:03:33.533Z,67.99
2023-03-22T06:06:01.117Z,69.54
2023-03-22T06:08:28.671Z,68.42
2023-03-22T06:10:56.410Z,67.84
2023-03-22T06:13:23.933Z,68.15
2023-03-22T06:15:51.747Z,67.69
2023-03-22T06:18:20.769Z,67.67
2023-03-22T06:20:48.272Z,67.40
2023-03-22T06:23:15.812Z,67.29
2023-03-22T06:25:43.550Z,67.25
2023-03-22T06:28:11.080Z,67.39
2023-03-22T06:30:38.939Z,67.43
2023-03-22T06:33:06.955Z,67.32
2023-03-22T06:35:36.238Z,67.48
2023-03-22T06:38:03.897Z,66.92
2023-03-22T06:40:31.427Z,67.06
2023-03-22T06:43:01.628Z,67.23
2023-03-22T06:45:33.454Z,67.23
2023-03-22T06:48:01.536Z,67.92
2023-03-22T06:50:29.796Z,67.83
2023-03-22T06:52:58.686Z,68.22
2023-03-22T06:55:26.304Z,66.77
2023-03-22T06:57:53.797Z,66.22
2023-03-22T07:00:21.593Z,66.67
2023-03-22T07:02:50.921Z,65.61
2023-03-22T07:05:20.257Z,65.05
2023-03-22T07:07:47.833Z,64.37
2023-03-22T07:10:16.662Z,66.26
2023-03-22T07:12:44.203Z,65.58
2023-03-22T07:15:12.423Z,65.35
2023-03-22T07:17:39.931Z,63.52
2023-03-22T07:20:08.655Z,64.08
2023-03-22T07:22:36.226Z,66.52
2023-03-22T07:25:03.930Z,62.64
2023-03-22T07:27:32.793Z,62.01
2023-03-22T07:30:00.416Z,60.31
2023-03-22T07:32:27.965Z,59.27
2023-03-22T07:34:55.489Z,59.40
2023-03-22T07:37:23.203Z,57.88
2023-03-22T07:39:50.684Z,58.32
2023-03-22T07:42:18.214Z,56.71
2023-03-22T07:44:49.750Z,58.51
2023-03-22T07:47:22.146Z,55.47
2023-03-22T07:49:54.782Z,55.00
2023-03-22T07:52:22.326Z,54.28
2023-03-22T07:54:49.829Z,51.29
2023-03-22T07:57:17.319Z,45.85
2023-03-22T07:59:44.809Z,41.42
2023-03-22T08:02:13.828Z,37.48
2023-03-22T08:04:41.373Z,35.48
2023-03-22T08:07:10.104Z,37.01
2023-03-22T08:09:37.976Z,33.69
2023-03-22T08:12:06.216Z,33.18
2023-03-22T08:14:37.087Z,31.34
2023-03-22T08:17:05.063Z,31.20
2023-03-22T08:19:34.204Z,27.39
2023-03-22T08:22:01.906Z,27.31
2023-03-22T08:24:29.390Z,26.37
2023-03-22T08:26:57.577Z,25.14
2023-03-22T08:29:25.217Z,25.08
2023-03-22T08:31:52.813Z,26.59
2023-03-22T08:34:20.396Z,24.61
2023-03-22T08:36:49.249Z,23.18
2023-03-22T08:39:16.807Z,23.31
2023-03-22T08:41:44.373Z,23.45
2023-03-22T08:44:11.964Z,22.24
2023-03-22T08:46:40.067Z,22.65
2023-03-22T08:49:10.377Z,22.22
2023-03-22T08:51:37.931Z,22.55
2023-03-22T08:54:08.088Z,20.89
2023-03-22T08:56:38.161Z,22.16
2023-03-22T08:59:06.564Z,22.21
2023-03-22T09:01:34.165Z,21.37
2023-03-22T09:04:02.110Z,22.76
2023-03-22T09:06:29.709Z,22.13
2023-03-22T09:08:57.642Z,24.09
2023-03-22T09:11:26.569Z,24.34
2023-03-22T09:13:54.060Z,24.73
2023-03-22T09:16:21.605Z,27.09
2023-03-22T09:18:49.152Z,27.05
2023-03-22T09:21:16.736Z,26.98
2023-03-22T09:23:47.835Z,25.60
2023-03-22T09:26:15.791Z,24.42
2023-03-22T09:28:46.820Z,25.78
2023-03-22T09:31:14.544Z,24.69
2023-03-22T09:33:42.427Z,26.42
2023-03-22T09:36:11.904Z,26.65
2023-03-22T09:38:39.514Z,27.15
2023-03-22T09:41:12.466Z,26.86
2023-03-22T09:43:43.448Z,26.18
2023-03-22T09:46:16.818Z,27.44
2023-03-22T09:48:48.346Z,26.44
2023-03-22T09:51:21.618Z,27.73
2023-03-22T09:53:49.158Z,27.73
2023-03-22T09:56:23.067Z,27.35
2023-03-22T09:58:57.252Z,28.92
2023-03-22T10:01:35.098Z,28.09
2023-03-22T10:04:27.182Z,26.52
2023-03-22T10:07:06.818Z,26.49
2023-03-22T10:09:40.289Z,27.09
2023-03-22T10:12:16.461Z,28.35
2023-03-22T10:14:50.742Z,28.25
2023-03-22T10:17:24.097Z,28.82
2023-03-22T10:19:56.367Z,27.41
2023-03-22T10:22:29.945Z,27.23
2023-03-22T10:24:58.935Z,29.26
2023-03-22T10:27:27.630Z,27.13
2023-03-22T10:29:59.293Z,27.72
2023-03-22T10:32:36.322Z,26.10
2023-03-22T10:35:07.110Z,26.13
2023-03-22T10:37:37.609Z,26.38
2023-03-22T10:40:07.941Z,25.56
2023-03-22T10:42:37.767Z,26.06
2023-03-22T10:45:09.398Z,24.96
2023-03-22T10:47:42.751Z,24.73
2023-03-22T10:50:16.710Z,24.59
2023-03-22T10:52:50.760Z,25.51
2023-03-22T10:55:18.605Z,25.65
2023-03-22T10:58:09.540Z,24.80
2023-03-22T11:00:40.599Z,24.93
2023-03-22T11:03:27.602Z,23.74
2023-03-22T11:06:08.036Z,23.66
2023-03-22T11:08:45.028Z,24.19
2023-03-22T11:11:24.204Z,25.94
2023-03-22T11:13:54.945Z,24.22
2023-03-22T11:16:23.903Z,26.42
2023-03-22T11:18:52.898Z,25.24
2023-03-22T11:21:24.032Z,24.26
2023-03-22T11:23:57.423Z,23.09
2023-03-22T11:26:31.958Z,25.38
2023-03-22T11:29:11.642Z,23.22
2023-03-22T11:31:56.324Z,23.30
2023-03-22T11:34:28.063Z,23.84
2023-03-22T11:36:57.532Z,24.72
2023-03-22T11:39:28.324Z,24.09
2023-03-22T11:42:01.129Z,23.93
2023-03-22T11:44:33.086Z,23.94
2023-03-22T11:47:01.852Z,25.41
2023-03-22T11:49:39.252Z,24.68
2023-03-22T11:52:12.596Z,25.19
2023-03-22T11:54:42.360Z,25.19
2023-03-22T11:57:16.987Z,25.11
2023-03-22T11:59:51.077Z,25.86
2023-03-22T12:02:24.667Z,25.33
2023-03-22T12:05:01.698Z,25.14
2023-03-22T12:07:33.739Z,26.30
2023-03-22T12:10:06.112Z,25.44
2023-03-22T12:12:37.817Z,25.98
2023-03-22T12:15:13.575Z,27.28
2023-03-22T12:17:46.319Z,27.00
2023-03-22T12:20:23.106Z,26.73
2023-03-22T12:22:54.785Z,27.24
2023-03-22T12:25:26.542Z,27.12
2023-03-22T12:27:57.089Z,27.89
2023-03-22T12:30:26.826Z,28.01
2023-03-22T12:33:01.537Z,29.02
2023-03-22T12:35:32.803Z,27.98
2023-03-22T12:38:07.735Z,28.42
2023-03-22T12:40:39.766Z,29.50
2023-03-22T12:43:15.376Z,29.36
2023-03-22T12:45:49.064Z,29.75
2023-03-22T12:48:20.704Z,29.35
2023-03-22T12:50:53.724Z,28.38
2023-03-22T12:53:23.753Z,27.94
2023-03-22T12:55:52.183Z,27.82
2023-03-22T12:58:22.483Z,28.28
2023-03-22T13:00:55.908Z,28.13
2023-03-22T13:03:28.811Z,28.46
2023-03-22T13:06:05.361Z,29.65
2023-03-22T13:09:15.590Z,28.86
2023-03-22T13:11:44.812Z,29.91
2023-03-22T13:14:34.834Z,29.79
2023-03-22T13:17:02.581Z,29.26
2023-03-22T13:19:34.600Z,29.21
2023-03-22T13:22:22.220Z,29.34
2023-03-22T13:25:07.196Z,28.70
2023-03-22T13:27:39.901Z,28.32
2023-03-22T13:30:17.818Z,28.50
2023-03-22T13:32:51.643Z,28.47
2023-03-22T13:35:24.553Z,28.57
2023-03-22T13:37:54.193Z,27.90
2023-03-22T13:40:33.985Z,28.39
2023-03-22T13:43:25.292Z,28.36
2023-03-22T13:46:12.803Z,27.52
2023-03-22T13:48:56.035Z,27.67
2023-03-22T13:51:31.095Z,27.74
2023-03-22T13:54:07.894Z,27.40
2023-03-22T13:56:53.311Z,27.61
2023-03-22T13:59:26.923Z,26.75
2023-03-22T14:01:58.347Z,27.04
2023-03-22T14:04:34.900Z,27.68
2023-03-22T14:07:08.128Z,27.18
2023-03-22T14:09:44.462Z,27.03
2023-03-22T14:12:19.063Z,27.22
2023-03-22T14:14:49.646Z,27.36
2023-03-22T14:17:28.064Z,27.96
2023-03-22T14:19:58.214Z,27.94
